sensor_id;sensor_type;location;lat;lon;timestamp;temperature;humidity
22968;DHT22;11650;48.106;-1.696;2023-02-28T00:00:04;2.20;99.90
22968;DHT22;11650;48.106;-1.696;2023-02-28T00:02:40;2.10;99.90
22968;DHT22;11650;48.106;-1.696;2023-02-28T00:05:07;2.10;99.90
22968;DHT22;11650;48.106;-1.696;2023-02-28T00:07:33;2.10;99.90
22968;DHT22;11650;48.106;-1.696;2023-02-28T00:09:59;2.10;99.90
22968;DHT22;11650;48.106;-1.696;2023-02-28T00:12:25;2.10;99.90
22968;DHT22;11650;48.106;-1.696;2023-02-28T00:14:51;2.10;99.90
22968;DHT22;11650;48.106;-1.696;2023-02-28T00:17:16;2.10;99.90
22968;DHT22;11650;48.106;-1.696;2023-02-28T00:19:49;2.00;99.90
22968;DHT22;11650;48.106;-1.696;2023-02-28T00:22:17;2.10;99.90
22968;DHT22;11650;48.106;-1.696;2023-02-28T00:24:43;2.00;99.90
22968;DHT22;11650;48.106;-1.696;2023-02-28T00:27:09;2.00;99.90
22968;DHT22;11650;48.106;-1.696;2023-02-28T00:29:35;1.90;99.90
22968;DHT22;11650;48.106;-1.696;2023-02-28T00:32:01;2.00;99.90
22968;DHT22;11650;48.106;-1.696;2023-02-28T00:34:27;2.00;99.90
22968;DHT22;11650;48.106;-1.696;2023-02-28T00:36:52;2.00;99.90
22968;DHT22;11650;48.106;-1.696;2023-02-28T00:39:18;2.00;99.90
22968;DHT22;11650;48.106;-1.696;2023-02-28T00:41:44;2.00;99.90
22968;DHT22;11650;48.106;-1.696;2023-02-28T00:44:09;1.90;99.90
22968;DHT22;11650;48.106;-1.696;2023-02-28T00:46:35;1.90;99.90
22968;DHT22;11650;48.106;-1.696;2023-02-28T00:49:01;1.90;99.90
22968;DHT22;11650;48.106;-1.696;2023-02-28T00:51:26;1.90;99.90
22968;DHT22;11650;48.106;-1.696;2023-02-28T00:53:52;1.90;99.90
22968;DHT22;11650;48.106;-1.696;2023-02-28T00:56:17;1.90;99.90
22968;DHT22;11650;48.106;-1.696;2023-02-28T00:58:43;1.90;99.90
22968;DHT22;11650;48.106;-1.696;2023-02-28T01:01:09;1.80;99.90
22968;DHT22;11650;48.106;-1.696;2023-02-28T01:03:34;1.90;99.90
22968;DHT22;11650;48.106;-1.696;2023-02-28T01:06:00;1.80;99.90
22968;DHT22;11650;48.106;-1.696;2023-02-28T01:08:26;1.80;99.90
22968;DHT22;11650;48.106;-1.696;2023-02-28T01:10:52;1.90;99.90
22968;DHT22;11650;48.106;-1.696;2023-02-28T01:13:18;1.70;99.90
22968;DHT22;11650;48.106;-1.696;2023-02-28T01:15:49;1.70;99.90
22968;DHT22;11650;48.106;-1.696;2023-02-28T01:18:16;1.70;99.90
22968;DHT22;11650;48.106;-1.696;2023-02-28T01:20:42;1.70;99.90
22968;DHT22;11650;48.106;-1.696;2023-02-28T01:23:08;1.70;99.90
22968;DHT22;11650;48.106;-1.696;2023-02-28T01:25:37;1.70;99.90
22968;DHT22;11650;48.106;-1.696;2023-02-28T01:28:03;1.60;99.90
22968;DHT22;11650;48.106;-1.696;2023-02-28T01:30:28;1.60;99.90
22968;DHT22;11650;48.106;-1.696;2023-02-28T01:32:54;1.60;99.90
22968;DHT22;11650;48.106;-1.696;2023-02-28T01:35:20;1.60;99.90
22968;DHT22;11650;48.106;-1.696;2023-02-28T01:37:45;1.60;99.90
22968;DHT22;11650;48.106;-1.696;2023-02-28T01:40:12;1.50;99.90
22968;DHT22;11650;48.106;-1.696;2023-02-28T01:42:37;1.50;99.90
22968;DHT22;11650;48.106;-1.696;2023-02-28T01:45:26;1.50;99.90
22968;DHT22;11650;48.106;-1.696;2023-02-28T01:47:58;1.50;99.90
22968;DHT22;11650;48.106;-1.696;2023-02-28T01:50:29;1.50;99.90
22968;DHT22;11650;48.106;-1.696;2023-02-28T01:53:01;1.50;99.90
22968;DHT22;11650;48.106;-1.696;2023-02-28T01:55:28;1.40;99.90
22968;DHT22;11650;48.106;-1.696;2023-02-28T01:57:57;1.40;99.90
22968;DHT22;11650;48.106;-1.696;2023-02-28T02:00:25;1.50;99.90
22968;DHT22;11650;48.106;-1.696;2023-02-28T02:02:59;1.40;99.90
22968;DHT22;11650;48.106;-1.696;2023-02-28T02:05:29;1.40;99.90
22968;DHT22;11650;48.106;-1.696;2023-02-28T02:08:00;1.40;99.90
22968;DHT22;11650;48.106;-1.696;2023-02-28T02:10:36;1.40;99.90
22968;DHT22;11650;48.106;-1.696;2023-02-28T02:27:33;1.30;99.90
22968;DHT22;11650;48.106;-1.696;2023-02-28T02:35:52;1.30;99.90
22968;DHT22;11650;48.106;-1.696;2023-02-28T02:41:12;1.20;99.90
22968;DHT22;11650;48.106;-1.696;2023-02-28T02:43:53;1.20;99.90
22968;DHT22;11650;48.106;-1.696;2023-02-28T02:46:32;1.30;99.90
22968;DHT22;11650;48.106;-1.696;2023-02-28T02:49:01;1.20;99.90
22968;DHT22;11650;48.106;-1.696;2023-02-28T02:51:30;1.10;99.90
22968;DHT22;11650;48.106;-1.696;2023-02-28T02:54:04;1.10;99.90
22968;DHT22;11650;48.106;-1.696;2023-02-28T02:56:32;1.10;99.90
22968;DHT22;11650;48.106;-1.696;2023-02-28T02:59:07;1.10;99.90
22968;DHT22;11650;48.106;-1.696;2023-02-28T03:01:35;1.10;99.90
22968;DHT22;11650;48.106;-1.696;2023-02-28T03:04:04;1.00;99.90
22968;DHT22;11650;48.106;-1.696;2023-02-28T03:06:31;1.00;99.90
22968;DHT22;11650;48.106;-1.696;2023-02-28T03:08:56;1.00;99.90
22968;DHT22;11650;48.106;-1.696;2023-02-28T03:11:22;1.00;99.90
22968;DHT22;11650;48.106;-1.696;2023-02-28T03:20:24;0.90;99.90
22968;DHT22;11650;48.106;-1.696;2023-02-28T03:25:22;0.80;99.90
22968;DHT22;11650;48.106;-1.696;2023-02-28T03:30:36;0.70;99.90
22968;DHT22;11650;48.106;-1.696;2023-02-28T03:33:08;0.80;99.90
22968;DHT22;11650;48.106;-1.696;2023-02-28T03:35:54;0.80;99.90
22968;DHT22;11650;48.106;-1.696;2023-02-28T03:41:32;0.80;99.90
22968;DHT22;11650;48.106;-1.696;2023-02-28T03:44:07;0.80;99.90
22968;DHT22;11650;48.106;-1.696;2023-02-28T03:46:38;0.70;99.90
22968;DHT22;11650;48.106;-1.696;2023-02-28T03:49:17;0.80;99.90
22968;DHT22;11650;48.106;-1.696;2023-02-28T03:51:45;0.70;99.90
22968;DHT22;11650;48.106;-1.696;2023-02-28T03:54:18;0.80;99.90
22968;DHT22;11650;48.106;-1.696;2023-02-28T03:59:42;0.70;99.90
22968;DHT22;11650;48.106;-1.696;2023-02-28T04:02:09;0.60;99.90
22968;DHT22;11650;48.106;-1.696;2023-02-28T04:04:35;0.60;99.90
22968;DHT22;11650;48.106;-1.696;2023-02-28T04:07:05;0.60;99.90
22968;DHT22;11650;48.106;-1.696;2023-02-28T04:09:31;0.60;99.90
22968;DHT22;11650;48.106;-1.696;2023-02-28T04:11:56;0.50;99.90
22968;DHT22;11650;48.106;-1.696;2023-02-28T04:14:22;0.60;99.90
22968;DHT22;11650;48.106;-1.696;2023-02-28T04:16:48;0.50;99.90
22968;DHT22;11650;48.106;-1.696;2023-02-28T04:19:16;0.60;99.90
22968;DHT22;11650;48.106;-1.696;2023-02-28T04:22:00;0.60;99.90
22968;DHT22;11650;48.106;-1.696;2023-02-28T04:24:27;0.50;99.90
22968;DHT22;11650;48.106;-1.696;2023-02-28T04:26:55;0.50;99.90
22968;DHT22;11650;48.106;-1.696;2023-02-28T04:29:26;0.60;99.90
22968;DHT22;11650;48.106;-1.696;2023-02-28T04:31:53;0.50;99.90
22968;DHT22;11650;48.106;-1.696;2023-02-28T04:34:20;0.50;99.90
22968;DHT22;11650;48.106;-1.696;2023-02-28T04:36:47;0.50;99.90
22968;DHT22;11650;48.106;-1.696;2023-02-28T04:39:15;0.40;99.90
22968;DHT22;11650;48.106;-1.696;2023-02-28T04:41:40;0.40;99.90
22968;DHT22;11650;48.106;-1.696;2023-02-28T04:44:06;0.40;99.90
22968;DHT22;11650;48.106;-1.696;2023-02-28T04:46:32;0.40;99.90
22968;DHT22;11650;48.106;-1.696;2023-02-28T04:48:57;0.40;99.90
22968;DHT22;11650;48.106;-1.696;2023-02-28T04:51:24;0.30;99.90
22968;DHT22;11650;48.106;-1.696;2023-02-28T04:53:49;0.40;99.90
22968;DHT22;11650;48.106;-1.696;2023-02-28T04:56:16;0.30;99.90
22968;DHT22;11650;48.106;-1.696;2023-02-28T04:58:42;0.30;99.90
22968;DHT22;11650;48.106;-1.696;2023-02-28T05:01:32;0.30;99.90
22968;DHT22;11650;48.106;-1.696;2023-02-28T05:04:00;0.30;99.90
22968;DHT22;11650;48.106;-1.696;2023-02-28T05:06:29;0.20;99.90
22968;DHT22;11650;48.106;-1.696;2023-02-28T05:08:56;0.20;99.90
22968;DHT22;11650;48.106;-1.696;2023-02-28T05:11:30;0.20;99.90
22968;DHT22;11650;48.106;-1.696;2023-02-28T05:14:03;0.20;99.90
22968;DHT22;11650;48.106;-1.696;2023-02-28T05:16:29;0.20;99.90
22968;DHT22;11650;48.106;-1.696;2023-02-28T05:18:55;0.10;99.90
22968;DHT22;11650;48.106;-1.696;2023-02-28T05:21:25;0.10;99.90
22968;DHT22;11650;48.106;-1.696;2023-02-28T05:23:52;0.20;99.90
22968;DHT22;11650;48.106;-1.696;2023-02-28T05:26:18;0.10;99.90
22968;DHT22;11650;48.106;-1.696;2023-02-28T05:28:43;0.10;99.90
22968;DHT22;11650;48.106;-1.696;2023-02-28T05:31:12;0.10;99.90
22968;DHT22;11650;48.106;-1.696;2023-02-28T05:33:38;0.10;99.90
22968;DHT22;11650;48.106;-1.696;2023-02-28T05:36:05;0.10;99.90
22968;DHT22;11650;48.106;-1.696;2023-02-28T05:38:31;0.10;99.90
22968;DHT22;11650;48.106;-1.696;2023-02-28T05:40:57;0.10;99.90
22968;DHT22;11650;48.106;-1.696;2023-02-28T05:43:22;0.00;99.90
22968;DHT22;11650;48.106;-1.696;2023-02-28T05:45:48;0.10;99.90
22968;DHT22;11650;48.106;-1.696;2023-02-28T05:48:14;0.00;99.90
22968;DHT22;11650;48.106;-1.696;2023-02-28T05:50:40;0.10;99.90
22968;DHT22;11650;48.106;-1.696;2023-02-28T05:53:06;0.10;99.90
22968;DHT22;11650;48.106;-1.696;2023-02-28T05:55:32;0.00;99.90
22968;DHT22;11650;48.106;-1.696;2023-02-28T05:57:57;0.00;99.90
22968;DHT22;11650;48.106;-1.696;2023-02-28T06:00:23;0.00;99.90
22968;DHT22;11650;48.106;-1.696;2023-02-28T06:02:49;0.00;99.90
22968;DHT22;11650;48.106;-1.696;2023-02-28T06:05:16;0.00;99.90
22968;DHT22;11650;48.106;-1.696;2023-02-28T06:07:43;0.10;99.90
22968;DHT22;11650;48.106;-1.696;2023-02-28T06:10:10;0.10;99.90
22968;DHT22;11650;48.106;-1.696;2023-02-28T06:12:37;0.00;99.90
22968;DHT22;11650;48.106;-1.696;2023-02-28T06:15:03;0.00;99.90
22968;DHT22;11650;48.106;-1.696;2023-02-28T06:17:29;0.00;99.90
22968;DHT22;11650;48.106;-1.696;2023-02-28T06:19:55;0.00;99.90
22968;DHT22;11650;48.106;-1.696;2023-02-28T06:22:20;0.00;99.90
22968;DHT22;11650;48.106;-1.696;2023-02-28T06:24:46;0.00;99.90
22968;DHT22;11650;48.106;-1.696;2023-02-28T06:27:12;0.00;99.90
22968;DHT22;11650;48.106;-1.696;2023-02-28T06:29:37;0.00;99.90
22968;DHT22;11650;48.106;-1.696;2023-02-28T06:32:05;0.00;99.90
22968;DHT22;11650;48.106;-1.696;2023-02-28T06:34:31;0.00;99.90
22968;DHT22;11650;48.106;-1.696;2023-02-28T06:36:57;0.00;99.90
22968;DHT22;11650;48.106;-1.696;2023-02-28T06:39:28;0.00;99.90
22968;DHT22;11650;48.106;-1.696;2023-02-28T06:41:53;-0.10;99.90
22968;DHT22;11650;48.106;-1.696;2023-02-28T06:44:19;-0.10;99.90
22968;DHT22;11650;48.106;-1.696;2023-02-28T06:46:45;-0.10;99.90
22968;DHT22;11650;48.106;-1.696;2023-02-28T06:49:11;-0.10;99.90
22968;DHT22;11650;48.106;-1.696;2023-02-28T06:51:39;0.00;99.90
22968;DHT22;11650;48.106;-1.696;2023-02-28T06:54:05;0.00;99.90
22968;DHT22;11650;48.106;-1.696;2023-02-28T06:56:34;-0.10;99.90
22968;DHT22;11650;48.106;-1.696;2023-02-28T06:59:00;-0.10;99.90
22968;DHT22;11650;48.106;-1.696;2023-02-28T07:01:26;-0.10;99.90
22968;DHT22;11650;48.106;-1.696;2023-02-28T07:03:54;-0.10;99.90
22968;DHT22;11650;48.106;-1.696;2023-02-28T07:06:21;0.00;99.90
22968;DHT22;11650;48.106;-1.696;2023-02-28T07:08:53;-0.10;99.90
22968;DHT22;11650;48.106;-1.696;2023-02-28T07:11:20;0.00;99.90
22968;DHT22;11650;48.106;-1.696;2023-02-28T07:13:48;0.00;99.90
22968;DHT22;11650;48.106;-1.696;2023-02-28T07:16:14;0.00;99.90
22968;DHT22;11650;48.106;-1.696;2023-02-28T07:18:39;0.00;99.90
22968;DHT22;11650;48.106;-1.696;2023-02-28T07:21:07;0.00;99.90
22968;DHT22;11650;48.106;-1.696;2023-02-28T07:23:34;0.00;99.90
22968;DHT22;11650;48.106;-1.696;2023-02-28T07:26:00;0.00;99.90
22968;DHT22;11650;48.106;-1.696;2023-02-28T07:28:25;0.00;99.90
22968;DHT22;11650;48.106;-1.696;2023-02-28T07:30:51;0.00;99.90
22968;DHT22;11650;48.106;-1.696;2023-02-28T07:33:17;0.10;99.90
22968;DHT22;11650;48.106;-1.696;2023-02-28T07:35:43;0.10;99.90
22968;DHT22;11650;48.106;-1.696;2023-02-28T07:38:09;0.20;99.90
22968;DHT22;11650;48.106;-1.696;2023-02-28T07:40:35;0.10;99.90
22968;DHT22;11650;48.106;-1.696;2023-02-28T07:43:02;0.20;99.90
22968;DHT22;11650;48.106;-1.696;2023-02-28T07:45:29;0.30;99.90
22968;DHT22;11650;48.106;-1.696;2023-02-28T07:47:55;0.30;99.90
22968;DHT22;11650;48.106;-1.696;2023-02-28T07:50:21;0.30;99.90
22968;DHT22;11650;48.106;-1.696;2023-02-28T07:52:47;0.40;99.90
22968;DHT22;11650;48.106;-1.696;2023-02-28T07:55:13;0.40;99.90
22968;DHT22;11650;48.106;-1.696;2023-02-28T07:57:40;0.50;99.90
22968;DHT22;11650;48.106;-1.696;2023-02-28T08:00:08;0.50;99.90
22968;DHT22;11650;48.106;-1.696;2023-02-28T08:02:38;0.60;99.90
22968;DHT22;11650;48.106;-1.696;2023-02-28T08:05:04;0.60;99.90
22968;DHT22;11650;48.106;-1.696;2023-02-28T08:07:30;0.70;99.90
22968;DHT22;11650;48.106;-1.696;2023-02-28T08:09:56;0.70;99.90
22968;DHT22;11650;48.106;-1.696;2023-02-28T08:12:21;0.80;99.90
22968;DHT22;11650;48.106;-1.696;2023-02-28T08:14:47;1.00;99.90
22968;DHT22;11650;48.106;-1.696;2023-02-28T08:17:13;1.10;99.90
22968;DHT22;11650;48.106;-1.696;2023-02-28T08:19:38;1.10;99.90
22968;DHT22;11650;48.106;-1.696;2023-02-28T08:22:04;1.20;99.90
22968;DHT22;11650;48.106;-1.696;2023-02-28T08:24:30;1.40;99.90
22968;DHT22;11650;48.106;-1.696;2023-02-28T08:26:56;1.50;99.90
22968;DHT22;11650;48.106;-1.696;2023-02-28T08:29:21;1.50;99.90
22968;DHT22;11650;48.106;-1.696;2023-02-28T08:31:47;1.50;99.90
22968;DHT22;11650;48.106;-1.696;2023-02-28T08:34:14;1.60;99.90
22968;DHT22;11650;48.106;-1.696;2023-02-28T08:36:40;1.70;99.90
22968;DHT22;11650;48.106;-1.696;2023-02-28T08:39:06;1.90;99.90
22968;DHT22;11650;48.106;-1.696;2023-02-28T08:41:33;1.90;99.90
22968;DHT22;11650;48.106;-1.696;2023-02-28T08:43:58;2.00;99.90
22968;DHT22;11650;48.106;-1.696;2023-02-28T08:46:25;2.10;99.90
22968;DHT22;11650;48.106;-1.696;2023-02-28T08:48:53;2.30;99.90
22968;DHT22;11650;48.106;-1.696;2023-02-28T08:51:20;2.30;99.90
22968;DHT22;11650;48.106;-1.696;2023-02-28T08:53:55;2.40;99.90
22968;DHT22;11650;48.106;-1.696;2023-02-28T08:56:23;2.60;99.90
22968;DHT22;11650;48.106;-1.696;2023-02-28T08:58:49;2.70;99.90
22968;DHT22;11650;48.106;-1.696;2023-02-28T09:01:18;2.80;99.90
22968;DHT22;11650;48.106;-1.696;2023-02-28T09:03:45;2.70;99.90
22968;DHT22;11650;48.106;-1.696;2023-02-28T09:06:15;2.70;99.90
22968;DHT22;11650;48.106;-1.696;2023-02-28T09:08:41;2.70;99.90
22968;DHT22;11650;48.106;-1.696;2023-02-28T09:11:07;2.90;99.90
22968;DHT22;11650;48.106;-1.696;2023-02-28T09:13:33;3.00;99.90
22968;DHT22;11650;48.106;-1.696;2023-02-28T09:16:02;2.90;99.90
22968;DHT22;11650;48.106;-1.696;2023-02-28T09:18:28;2.80;99.90
22968;DHT22;11650;48.106;-1.696;2023-02-28T09:20:54;3.00;99.90
22968;DHT22;11650;48.106;-1.696;2023-02-28T09:23:20;3.10;99.90
22968;DHT22;11650;48.106;-1.696;2023-02-28T09:25:51;3.10;99.90
22968;DHT22;11650;48.106;-1.696;2023-02-28T09:28:18;3.10;99.90
22968;DHT22;11650;48.106;-1.696;2023-02-28T09:30:45;3.20;99.90
22968;DHT22;11650;48.106;-1.696;2023-02-28T09:33:11;3.20;99.90
22968;DHT22;11650;48.106;-1.696;2023-02-28T09:35:37;3.30;99.90
22968;DHT22;11650;48.106;-1.696;2023-02-28T09:38:03;3.40;99.90
22968;DHT22;11650;48.106;-1.696;2023-02-28T09:40:30;3.60;99.90
22968;DHT22;11650;48.106;-1.696;2023-02-28T09:42:57;3.80;99.90
22968;DHT22;11650;48.106;-1.696;2023-02-28T09:45:37;3.70;99.90
22968;DHT22;11650;48.106;-1.696;2023-02-28T09:48:16;3.80;99.90
22968;DHT22;11650;48.106;-1.696;2023-02-28T09:51:12;3.70;99.90
22968;DHT22;11650;48.106;-1.696;2023-02-28T09:53:41;4.00;99.90
22968;DHT22;11650;48.106;-1.696;2023-02-28T09:56:14;4.20;99.90
22968;DHT22;11650;48.106;-1.696;2023-02-28T10:01:39;4.40;99.90
22968;DHT22;11650;48.106;-1.696;2023-02-28T10:06:59;4.50;99.90
22968;DHT22;11650;48.106;-1.696;2023-02-28T10:09:30;4.60;99.90
22968;DHT22;11650;48.106;-1.696;2023-02-28T10:12:02;4.60;99.90
22968;DHT22;11650;48.106;-1.696;2023-02-28T10:14:30;4.60;99.90
22968;DHT22;11650;48.106;-1.696;2023-02-28T10:17:03;4.70;99.90
22968;DHT22;11650;48.106;-1.696;2023-02-28T10:22:20;5.00;99.90
22968;DHT22;11650;48.106;-1.696;2023-02-28T10:24:52;5.20;99.90
22968;DHT22;11650;48.106;-1.696;2023-02-28T10:27:21;5.00;99.90
22968;DHT22;11650;48.106;-1.696;2023-02-28T10:29:55;5.10;99.90
22968;DHT22;11650;48.106;-1.696;2023-02-28T10:32:33;5.10;99.90
22968;DHT22;11650;48.106;-1.696;2023-02-28T10:37:41;5.60;99.90
22968;DHT22;11650;48.106;-1.696;2023-02-28T10:45:36;5.50;99.90
22968;DHT22;11650;48.106;-1.696;2023-02-28T10:55:57;5.90;99.90
22968;DHT22;11650;48.106;-1.696;2023-02-28T10:58:26;6.10;99.90
22968;DHT22;11650;48.106;-1.696;2023-02-28T11:00:53;6.30;99.90
22968;DHT22;11650;48.106;-1.696;2023-02-28T11:03:34;6.50;99.90
22968;DHT22;11650;48.106;-1.696;2023-02-28T11:06:06;6.40;99.90
22968;DHT22;11650;48.106;-1.696;2023-02-28T11:08:33;6.40;99.90
22968;DHT22;11650;48.106;-1.696;2023-02-28T11:11:04;6.10;99.90
22968;DHT22;11650;48.106;-1.696;2023-02-28T11:13:36;6.20;99.90
22968;DHT22;11650;48.106;-1.696;2023-02-28T11:16:09;6.60;99.90
22968;DHT22;11650;48.106;-1.696;2023-02-28T11:21:03;6.80;99.90
22968;DHT22;11650;48.106;-1.696;2023-02-28T11:23:32;6.90;99.90
22968;DHT22;11650;48.106;-1.696;2023-02-28T11:26:02;6.70;99.90
22968;DHT22;11650;48.106;-1.696;2023-02-28T11:28:34;6.30;99.90
22968;DHT22;11650;48.106;-1.696;2023-02-28T11:31:14;6.50;99.90
22968;DHT22;11650;48.106;-1.696;2023-02-28T11:33:54;6.90;99.90
22968;DHT22;11650;48.106;-1.696;2023-02-28T11:38:53;7.30;99.90
22968;DHT22;11650;48.106;-1.696;2023-02-28T11:41:32;7.30;99.90
22968;DHT22;11650;48.106;-1.696;2023-02-28T11:50:19;7.60;99.90
22968;DHT22;11650;48.106;-1.696;2023-02-28T11:52:54;8.00;99.90
22968;DHT22;11650;48.106;-1.696;2023-02-28T11:55:43;7.70;99.90
22968;DHT22;11650;48.106;-1.696;2023-02-28T12:01:07;8.00;99.90
22968;DHT22;11650;48.106;-1.696;2023-02-28T12:09:38;7.90;99.90
22968;DHT22;11650;48.106;-1.696;2023-02-28T12:25:49;8.50;99.90
22968;DHT22;11650;48.106;-1.696;2023-02-28T12:28:22;8.50;99.90
22968;DHT22;11650;48.106;-1.696;2023-02-28T12:31:01;8.20;99.90
22968;DHT22;11650;48.106;-1.696;2023-02-28T12:33:34;8.50;99.90
22968;DHT22;11650;48.106;-1.696;2023-02-28T12:36:05;8.80;99.90
22968;DHT22;11650;48.106;-1.696;2023-02-28T12:38:40;9.10;99.90
22968;DHT22;11650;48.106;-1.696;2023-02-28T12:44:00;9.50;99.90
22968;DHT22;11650;48.106;-1.696;2023-02-28T12:46:34;9.60;99.90
22968;DHT22;11650;48.106;-1.696;2023-02-28T12:49:34;9.90;99.90
22968;DHT22;11650;48.106;-1.696;2023-02-28T12:52:04;9.80;99.90
22968;DHT22;11650;48.106;-1.696;2023-02-28T12:59:50;10.00;99.90
22968;DHT22;11650;48.106;-1.696;2023-02-28T13:05:49;10.10;99.90
22968;DHT22;11650;48.106;-1.696;2023-02-28T13:11:32;10.10;99.90
22968;DHT22;11650;48.106;-1.696;2023-02-28T13:14:03;10.70;99.90
22968;DHT22;11650;48.106;-1.696;2023-02-28T13:19:18;11.20;99.90
22968;DHT22;11650;48.106;-1.696;2023-02-28T13:21:45;11.60;99.90
22968;DHT22;11650;48.106;-1.696;2023-02-28T13:24:38;11.10;99.90
22968;DHT22;11650;48.106;-1.696;2023-02-28T13:29:41;11.10;99.90
22968;DHT22;11650;48.106;-1.696;2023-02-28T13:39:50;11.70;99.90
22968;DHT22;11650;48.106;-1.696;2023-02-28T13:47:41;10.40;99.90
22968;DHT22;11650;48.106;-1.696;2023-02-28T13:53:22;9.50;99.90
22968;DHT22;11650;48.106;-1.696;2023-02-28T14:06:49;8.10;99.90
22968;DHT22;11650;48.106;-1.696;2023-02-28T14:09:31;8.00;99.90
22968;DHT22;11650;48.106;-1.696;2023-02-28T14:15:43;8.20;99.90
22968;DHT22;11650;48.106;-1.696;2023-02-28T14:20:58;7.90;99.90
22968;DHT22;11650;48.106;-1.696;2023-02-28T14:26:06;7.80;99.90
22968;DHT22;11650;48.106;-1.696;2023-02-28T14:31:43;7.50;99.90
22968;DHT22;11650;48.106;-1.696;2023-02-28T14:34:22;7.40;99.90
22968;DHT22;11650;48.106;-1.696;2023-02-28T14:36:50;7.70;99.90
22968;DHT22;11650;48.106;-1.696;2023-02-28T14:39:21;7.60;99.90
22968;DHT22;11650;48.106;-1.696;2023-02-28T14:41:47;7.50;99.90
22968;DHT22;11650;48.106;-1.696;2023-02-28T14:46:42;7.40;99.90
22968;DHT22;11650;48.106;-1.696;2023-02-28T14:49:32;7.40;99.90
22968;DHT22;11650;48.106;-1.696;2023-02-28T14:54:38;7.20;99.90
22968;DHT22;11650;48.106;-1.696;2023-02-28T14:57:04;7.10;99.90
22968;DHT22;11650;48.106;-1.696;2023-02-28T14:59:35;7.00;99.90
22968;DHT22;11650;48.106;-1.696;2023-02-28T15:02:22;7.00;99.90
22968;DHT22;11650;48.106;-1.696;2023-02-28T15:05:00;7.10;99.90
22968;DHT22;11650;48.106;-1.696;2023-02-28T15:07:26;7.00;99.90
22968;DHT22;11650;48.106;-1.696;2023-02-28T15:10:21;6.90;99.90
22968;DHT22;11650;48.106;-1.696;2023-02-28T15:13:00;7.00;99.90
22968;DHT22;11650;48.106;-1.696;2023-02-28T15:18:07;7.20;99.90
22968;DHT22;11650;48.106;-1.696;2023-02-28T15:20:38;6.90;99.90
22968;DHT22;11650;48.106;-1.696;2023-02-28T15:23:04;6.90;99.90
22968;DHT22;11650;48.106;-1.696;2023-02-28T15:25:30;6.70;99.90
22968;DHT22;11650;48.106;-1.696;2023-02-28T15:27:57;6.70;99.90
22968;DHT22;11650;48.106;-1.696;2023-02-28T15:30:30;6.60;99.90
22968;DHT22;11650;48.106;-1.696;2023-02-28T15:33:22;6.50;99.90
22968;DHT22;11650;48.106;-1.696;2023-02-28T15:35:49;6.50;99.90
22968;DHT22;11650;48.106;-1.696;2023-02-28T15:40:52;6.50;99.90
22968;DHT22;11650;48.106;-1.696;2023-02-28T15:43:35;6.50;99.90
22968;DHT22;11650;48.106;-1.696;2023-02-28T15:46:01;6.40;99.90
22968;DHT22;11650;48.106;-1.696;2023-02-28T15:51:08;6.40;99.90
22968;DHT22;11650;48.106;-1.696;2023-02-28T15:53:44;6.30;99.90
22968;DHT22;11650;48.106;-1.696;2023-02-28T15:56:52;6.30;99.90
22968;DHT22;11650;48.106;-1.696;2023-02-28T15:59:23;6.20;99.90
22968;DHT22;11650;48.106;-1.696;2023-02-28T16:02:13;6.10;99.90
22968;DHT22;11650;48.106;-1.696;2023-02-28T16:07:31;5.90;99.90
22968;DHT22;11650;48.106;-1.696;2023-02-28T16:09:57;6.00;99.90
22968;DHT22;11650;48.106;-1.696;2023-02-28T16:12:29;5.90;99.90
22968;DHT22;11650;48.106;-1.696;2023-02-28T16:14:58;5.90;99.90
22968;DHT22;11650;48.106;-1.696;2023-02-28T16:17:26;5.90;99.90
22968;DHT22;11650;48.106;-1.696;2023-02-28T16:19:54;5.90;99.90
22968;DHT22;11650;48.106;-1.696;2023-02-28T16:22:20;5.80;99.90
22968;DHT22;11650;48.106;-1.696;2023-02-28T16:24:46;5.80;99.90
22968;DHT22;11650;48.106;-1.696;2023-02-28T16:29:43;5.80;99.90
22968;DHT22;11650;48.106;-1.696;2023-02-28T16:32:11;5.80;99.90
22968;DHT22;11650;48.106;-1.696;2023-02-28T16:34:37;5.90;99.90
22968;DHT22;11650;48.106;-1.696;2023-02-28T16:37:09;5.90;99.90
22968;DHT22;11650;48.106;-1.696;2023-02-28T16:39:35;5.90;99.90
22968;DHT22;11650;48.106;-1.696;2023-02-28T16:42:01;5.90;99.90
22968;DHT22;11650;48.106;-1.696;2023-02-28T16:44:29;5.90;99.90
22968;DHT22;11650;48.106;-1.696;2023-02-28T16:46:55;5.80;99.90
22968;DHT22;11650;48.106;-1.696;2023-02-28T16:49:21;5.80;99.90
22968;DHT22;11650;48.106;-1.696;2023-02-28T16:51:47;5.80;99.90
22968;DHT22;11650;48.106;-1.696;2023-02-28T16:54:13;5.80;99.90
22968;DHT22;11650;48.106;-1.696;2023-02-28T16:56:43;5.90;99.90
22968;DHT22;11650;48.106;-1.696;2023-02-28T16:59:10;5.70;99.90
22968;DHT22;11650;48.106;-1.696;2023-02-28T17:01:36;5.80;99.90
22968;DHT22;11650;48.106;-1.696;2023-02-28T17:04:02;5.90;99.90
22968;DHT22;11650;48.106;-1.696;2023-02-28T17:06:29;6.10;99.90
22968;DHT22;11650;48.106;-1.696;2023-02-28T17:08:56;5.80;99.90
22968;DHT22;11650;48.106;-1.696;2023-02-28T17:11:22;5.90;99.90
22968;DHT22;11650;48.106;-1.696;2023-02-28T17:13:48;5.80;99.90
22968;DHT22;11650;48.106;-1.696;2023-02-28T17:16:28;5.80;99.90
22968;DHT22;11650;48.106;-1.696;2023-02-28T17:18:56;5.80;99.90
22968;DHT22;11650;48.106;-1.696;2023-02-28T17:21:22;5.80;99.90
22968;DHT22;11650;48.106;-1.696;2023-02-28T17:23:48;5.80;99.90
22968;DHT22;11650;48.106;-1.696;2023-02-28T17:26:15;5.90;99.90
22968;DHT22;11650;48.106;-1.696;2023-02-28T17:28:42;5.80;99.90
22968;DHT22;11650;48.106;-1.696;2023-02-28T17:31:09;5.70;99.90
22968;DHT22;11650;48.106;-1.696;2023-02-28T17:33:34;5.60;99.90
22968;DHT22;11650;48.106;-1.696;2023-02-28T17:36:00;5.60;99.90
22968;DHT22;11650;48.106;-1.696;2023-02-28T17:38:26;5.60;99.90
22968;DHT22;11650;48.106;-1.696;2023-02-28T17:40:52;5.60;99.90
22968;DHT22;11650;48.106;-1.696;2023-02-28T17:43:23;5.60;99.90
22968;DHT22;11650;48.106;-1.696;2023-02-28T17:45:49;5.60;99.90
22968;DHT22;11650;48.106;-1.696;2023-02-28T17:48:14;5.60;99.90
22968;DHT22;11650;48.106;-1.696;2023-02-28T17:50:40;5.60;99.90
22968;DHT22;11650;48.106;-1.696;2023-02-28T17:53:06;5.60;99.90
22968;DHT22;11650;48.106;-1.696;2023-02-28T17:55:32;5.60;99.90
22968;DHT22;11650;48.106;-1.696;2023-02-28T17:58:00;5.60;99.90
22968;DHT22;11650;48.106;-1.696;2023-02-28T18:00:25;5.60;99.90
22968;DHT22;11650;48.106;-1.696;2023-02-28T18:02:51;5.60;99.90
22968;DHT22;11650;48.106;-1.696;2023-02-28T18:05:17;5.60;99.90
22968;DHT22;11650;48.106;-1.696;2023-02-28T18:07:43;5.60;99.90
22968;DHT22;11650;48.106;-1.696;2023-02-28T18:10:18;5.60;99.90
22968;DHT22;11650;48.106;-1.696;2023-02-28T18:12:46;5.50;99.90
22968;DHT22;11650;48.106;-1.696;2023-02-28T18:15:12;5.50;99.90
22968;DHT22;11650;48.106;-1.696;2023-02-28T18:17:38;5.60;99.90
22968;DHT22;11650;48.106;-1.696;2023-02-28T18:20:04;5.50;99.90
22968;DHT22;11650;48.106;-1.696;2023-02-28T18:22:34;5.50;99.90
22968;DHT22;11650;48.106;-1.696;2023-02-28T18:25:02;5.50;99.90
22968;DHT22;11650;48.106;-1.696;2023-02-28T18:27:28;5.50;99.90
22968;DHT22;11650;48.106;-1.696;2023-02-28T18:29:53;5.50;99.90
22968;DHT22;11650;48.106;-1.696;2023-02-28T18:32:19;5.40;99.90
22968;DHT22;11650;48.106;-1.696;2023-02-28T18:34:44;5.50;99.90
22968;DHT22;11650;48.106;-1.696;2023-02-28T18:37:10;5.50;99.90